Airfield :
LOGIN :

Register | Disclaimer

   EN    FR    IT 

 










Legend :    VFR   Marginal VFR   IFR   Intensive IFR   Very Intensive IFR
Visi :
Ceiling :
>= 8 km
>= 3000ft
5 to 8 km
1000 to 3000 ft
1500m to 5 km
500 to 1000 ft
800 to 1500m
200 to 500 ft
< 800m
< 200 ft
Symbols :   Thunderstorms  Fog  Heavy snow  Heavy precipitations  Wind > 20 kt
SIGMETs :     Misc.  Thunderstorms  Icing  Turbulence  Mountain Waves  Volcanic Ashes






- Airport Elevation : 1276 ft
- IATA code : STR


EDDS - Stuttgart

CURRENT METAR :
  • 301250Z AUTO 04005KT 9999 FEW012 OVC024 06/03 Q1020 NOSIG

EXPIRED METARs :
  • 301220Z AUTO 04004KT 9999 FEW010 OVC024 06/03 Q1020 NOSIG
  • 301150Z AUTO 05004KT 340V070 9999 OVC025 06/03 Q1020 NOSIG
  • 301120Z AUTO 07004KT 040V120 9999 FEW010 BKN019 OVC026 06/04 Q1020 NOSIG
  • 301050Z AUTO 07005KT 9999 BKN019 OVC032 06/03 Q1020 NOSIG
  • 301020Z AUTO 08004KT 9999 BKN020 OVC031 05/03 Q1020 NOSIG

TAF TAF EDDS
Valid from the 30 at 12:00 until the 01 at 12:00 UTC


301100Z 3012/0112 04005KT 9999 BKN020
TEMPO 3015/3024 4000 -DZ BR BKN008
TEMPO 0100/0112 4000 BR BKN008



MET'MAP, your aeronautical weather chart ! - Copyright ORBIFLY December 2007 - Disclaimer

ORBIFLY MET'MAP TEAM :

Programming & Development : Alexandra Zaïnal
Original concept : Baudouin d'Aumeries
Technical & hardware support : Manuel Goepfert
Assistance : Marc-Olivier Méhu




SOURCES & CREDITS :

   NOAA